Time;durP1;ratioP1;P1;durP2;ratioP2;P2;SDS_P1;SDS_P2;PMS_P1;PMS_P2;Temp;Humidity;BMP_temperature;BMP_pressure;BME280_temperature;BME280_humidity;BME280_pressure;Samples;Min_cycle;Max_cycle;Signal;HPM_P1;HPM_P2
2024/01/18 00:01:33;;;;;;;14.13;7.45;;;-1.40;99.90;;;;;;5036077;28;20032;-80
2024/01/18 00:04:00;;;;;;;11.20;6.55;;;-1.40;99.90;;;;;;5045180;28;20029;-80
2024/01/18 00:06:26;;;;;;;9.95;6.20;;;-1.40;99.90;;;;;;5037143;28;20497;-79
2024/01/18 00:08:51;;;;;;;12.13;6.45;;;-1.40;99.90;;;;;;5050519;28;20029;-80
2024/01/18 00:11:17;;;;;;;11.20;5.47;;;-1.40;99.90;;;;;;5056255;28;20029;-80
2024/01/18 00:13:44;;;;;;;10.52;5.75;;;-1.40;99.90;;;;;;5026418;28;20429;-80
2024/01/18 00:16:10;;;;;;;12.48;5.95;;;-1.40;99.90;;;;;;5034550;28;20025;-80
2024/01/18 00:18:36;;;;;;;10.75;6.22;;;-1.40;99.90;;;;;;5045146;28;20035;-80
2024/01/18 00:21:03;;;;;;;9.98;5.78;;;-1.30;99.90;;;;;;5044990;28;20386;-80
2024/01/18 00:23:29;;;;;;;10.02;5.93;;;-1.40;99.90;;;;;;5034729;28;20128;-80
2024/01/18 00:25:54;;;;;;;14.10;6.55;;;-1.30;99.90;;;;;;5036185;28;20259;-80
2024/01/18 00:28:20;;;;;;;10.40;6.15;;;-1.30;99.90;;;;;;5042839;28;20025;-80
2024/01/18 00:30:46;;;;;;;11.00;6.50;;;-1.30;99.90;;;;;;5055200;28;20025;-81
2024/01/18 00:33:12;;;;;;;12.75;6.65;;;-1.30;99.90;;;;;;5046358;28;20053;-80
2024/01/18 00:35:37;;;;;;;10.73;6.13;;;-1.30;99.90;;;;;;5035872;28;20033;-80
2024/01/18 00:38:03;;;;;;;12.02;6.30;;;-1.30;99.90;;;;;;5039483;28;20025;-79
2024/01/18 00:40:29;;;;;;;11.20;6.13;;;-1.30;99.90;;;;;;5055990;28;20474;-80
2024/01/18 00:42:55;;;;;;;11.75;6.15;;;-1.30;99.90;;;;;;5048680;28;20021;-80
2024/01/18 00:45:21;;;;;;;11.60;6.40;;;-1.20;99.90;;;;;;5035563;28;20033;-80
2024/01/18 00:47:47;;;;;;;13.75;6.40;;;-1.20;99.90;;;;;;5037540;28;20032;-80
2024/01/18 00:50:12;;;;;;;9.93;6.03;;;-1.20;99.90;;;;;;5054287;28;20082;-79
2024/01/18 00:52:38;;;;;;;9.88;5.75;;;-1.10;99.90;;;;;;5050284;28;20460;-81
2024/01/18 00:55:04;;;;;;;12.63;6.25;;;-1.10;99.90;;;;;;5034126;28;20036;-81
2024/01/18 00:57:30;;;;;;;9.27;5.70;;;-1.10;99.90;;;;;;5034992;28;20036;-82
2024/01/18 00:59:56;;;;;;;9.30;5.53;;;-1.10;99.90;;;;;;5049540;28;20030;-83
2024/01/18 01:02:22;;;;;;;10.13;5.28;;;-1.10;99.90;;;;;;5034145;28;20076;-82
2024/01/18 01:04:48;;;;;;;10.75;5.90;;;-1.10;99.90;;;;;;5035972;28;20390;-83
2024/01/18 01:07:13;;;;;;;11.38;5.97;;;-1.00;99.90;;;;;;5034141;28;20026;-82
2024/01/18 01:09:39;;;;;;;12.45;6.70;;;-1.00;99.90;;;;;;5036582;28;20059;-82
2024/01/18 01:12:05;;;;;;;11.50;6.53;;;-1.00;99.90;;;;;;5055854;28;20538;-82
2024/01/18 01:14:31;;;;;;;11.57;6.10;;;-0.90;99.90;;;;;;5035658;28;20036;-82
2024/01/18 01:16:56;;;;;;;11.73;6.28;;;-0.90;99.90;;;;;;5033935;28;20025;-82
2024/01/18 01:19:22;;;;;;;9.50;5.85;;;-0.90;99.90;;;;;;5050111;28;20029;-82
2024/01/18 01:21:48;;;;;;;10.52;6.07;;;-0.90;99.90;;;;;;5054415;28;20029;-83
2024/01/18 01:24:13;;;;;;;10.75;6.47;;;-0.90;99.90;;;;;;5001285;28;20482;-81
2024/01/18 01:26:39;;;;;;;11.75;6.53;;;-0.90;99.90;;;;;;5014780;28;20474;-82
2024/01/18 01:29:05;;;;;;;11.43;6.35;;;-0.90;99.90;;;;;;5031233;28;20036;-83
2024/01/18 01:31:31;;;;;;;13.57;6.60;;;-0.80;99.90;;;;;;5055804;28;20032;-82
2024/01/18 01:33:57;;;;;;;10.00;6.32;;;-0.90;99.90;;;;;;5040657;28;20026;-81
2024/01/18 01:36:23;;;;;;;10.57;6.22;;;-0.80;99.90;;;;;;5033404;28;20030;-81
2024/01/18 01:38:48;;;;;;;13.35;6.50;;;-0.80;99.90;;;;;;5044861;28;20025;-82
2024/01/18 01:41:14;;;;;;;10.13;6.15;;;-0.80;99.90;;;;;;5055171;28;20432;-82
2024/01/18 01:43:59;;;;;;;15.50;7.82;;;-0.80;99.90;;;;;;5042725;28;20116;-80
2024/01/18 01:46:26;;;;;;;17.27;7.90;;;-0.70;99.90;;;;;;5033211;28;20041;-81
2024/01/18 01:48:57;;;;;;;11.30;6.95;;;-0.70;99.90;;;;;;5047870;28;20048;-80
2024/01/18 01:51:23;;;;;;;10.93;6.50;;;-0.70;99.90;;;;;;5056602;28;20029;-79
2024/01/18 01:53:49;;;;;;;13.13;7.18;;;-0.70;99.90;;;;;;5028525;28;20031;-80
2024/01/18 01:56:14;;;;;;;12.07;6.60;;;-0.70;99.90;;;;;;5036333;28;20371;-81
2024/01/18 01:58:40;;;;;;;10.82;6.88;;;-0.70;99.90;;;;;;5047243;28;20388;-80
2024/01/18 02:01:06;;;;;;;12.73;7.00;;;-0.70;99.90;;;;;;5056668;28;20504;-81
2024/01/18 02:03:32;;;;;;;11.73;6.85;;;-0.70;99.90;;;;;;5046350;28;20041;-81
2024/01/18 02:05:58;;;;;;;13.43;6.90;;;-0.60;99.90;;;;;;5037966;28;20033;-81
2024/01/18 02:08:24;;;;;;;11.43;6.72;;;-0.60;99.90;;;;;;5045025;28;20072;-81
2024/01/18 02:10:50;;;;;;;13.70;7.10;;;-0.60;99.90;;;;;;5056401;28;20086;-80
2024/01/18 02:13:17;;;;;;;13.35;7.07;;;-0.60;99.90;;;;;;5049857;28;20415;-80
2024/01/18 02:15:43;;;;;;;12.15;7.07;;;-0.60;99.90;;;;;;5036615;28;20021;-80
2024/01/18 02:18:09;;;;;;;17.27;7.97;;;-0.60;99.90;;;;;;5041775;28;20021;-80
2024/01/18 02:20:34;;;;;;;10.82;6.93;;;-0.50;99.90;;;;;;5045847;28;20421;-78
2024/01/18 02:23:03;;;;;;;12.32;7.03;;;-0.50;99.90;;;;;;5036315;28;20039;-78
2024/01/18 02:25:29;;;;;;;11.93;7.65;;;-0.50;99.90;;;;;;5036923;28;20030;-78
2024/01/18 02:27:55;;;;;;;17.00;7.55;;;-0.50;99.90;;;;;;5039414;28;20481;-78
2024/01/18 02:30:21;;;;;;;11.00;6.97;;;-0.50;99.90;;;;;;5047650;28;20045;-78
2024/01/18 02:32:47;;;;;;;13.70;7.75;;;-0.50;99.90;;;;;;5036870;28;20032;-78
2024/01/18 02:35:14;;;;;;;13.35;7.85;;;-0.50;99.90;;;;;;5036738;28;20557;-79
2024/01/18 02:37:40;;;;;;;11.27;7.03;;;-0.50;99.90;;;;;;5037946;28;20053;-78
2024/01/18 02:40:07;;;;;;;10.98;6.97;;;-0.50;99.90;;;;;;5041151;28;20041;-79
2024/01/18 02:42:33;;;;;;;11.00;6.68;;;-0.50;99.90;;;;;;5039947;28;20041;-79
2024/01/18 02:45:01;;;;;;;14.50;7.20;;;-0.50;99.90;;;;;;5040089;28;20045;-79
2024/01/18 02:47:28;;;;;;;12.05;7.00;;;-0.50;99.90;;;;;;5041105;28;20032;-79
2024/01/18 02:49:58;;;;;;;14.05;8.05;;;-0.50;99.90;;;;;;5045067;28;20060;-79
2024/01/18 02:52:24;;;;;;;12.55;7.68;;;-0.50;99.90;;;;;;5057260;28;20041;-78
2024/01/18 02:54:49;;;;;;;17.52;9.30;;;-0.40;99.90;;;;;;5061024;28;20138;-79
2024/01/18 02:57:15;;;;;;;13.30;8.20;;;-0.40;99.90;;;;;;5058494;28;20493;-79
2024/01/18 02:59:41;;;;;;;14.27;8.52;;;-0.30;99.90;;;;;;5024599;28;20033;-79
2024/01/18 03:02:07;;;;;;;18.02;8.80;;;-0.30;99.90;;;;;;5039692;28;20107;-79
2024/01/18 03:04:32;;;;;;;15.77;9.38;;;-0.30;99.90;;;;;;5039920;28;20036;-79
2024/01/18 03:06:58;;;;;;;15.00;8.57;;;-0.30;99.90;;;;;;5041293;28;20022;-79
2024/01/18 03:09:24;;;;;;;15.65;9.38;;;-0.30;99.90;;;;;;5045262;28;20056;-79
2024/01/18 03:11:49;;;;;;;15.63;9.50;;;-0.30;99.90;;;;;;5040396;28;20034;-79
2024/01/18 03:14:15;;;;;;;13.20;7.88;;;-0.30;99.90;;;;;;5040438;28;20061;-79
2024/01/18 03:16:45;;;;;;;17.50;8.48;;;-0.30;99.90;;;;;;5039775;28;20045;-79
2024/01/18 03:19:11;;;;;;;15.57;9.05;;;-0.30;99.90;;;;;;5044722;28;20034;-79
2024/01/18 03:21:37;;;;;;;13.70;8.88;;;-0.30;99.90;;;;;;5039061;28;20053;-79
2024/01/18 03:24:02;;;;;;;14.05;9.10;;;-0.30;99.90;;;;;;5023009;28;20041;-79
2024/01/18 03:26:28;;;;;;;17.15;9.98;;;-0.30;99.90;;;;;;5040561;28;20030;-79
2024/01/18 03:28:54;;;;;;;16.60;8.68;;;-0.20;99.90;;;;;;5023972;28;20544;-79
2024/01/18 03:31:20;;;;;;;13.13;7.75;;;-0.20;99.90;;;;;;5020548;28;20037;-79
2024/01/18 03:33:46;;;;;;;15.00;8.43;;;-0.20;99.90;;;;;;5021029;28;20390;-79
2024/01/18 03:36:11;;;;;;;14.75;8.52;;;-0.20;99.90;;;;;;5019177;28;20026;-79
2024/01/18 03:38:37;;;;;;;13.07;8.02;;;-0.20;99.90;;;;;;5029033;28;20018;-79
2024/01/18 03:41:03;;;;;;;17.02;8.77;;;-0.20;99.90;;;;;;5037525;28;20037;-79
2024/01/18 03:43:29;;;;;;;16.13;8.95;;;-0.20;99.90;;;;;;5037871;28;20025;-79
2024/01/18 03:45:54;;;;;;;14.07;8.13;;;-0.20;99.90;;;;;;5036230;28;20045;-79
2024/01/18 03:48:23;;;;;;;13.23;7.47;;;-0.20;99.90;;;;;;5042669;28;20081;-80
2024/01/18 03:50:49;;;;;;;14.50;7.93;;;-0.20;99.90;;;;;;5037149;28;20466;-79
2024/01/18 03:53:14;;;;;;;14.70;9.13;;;-0.20;99.90;;;;;;5037469;28;20030;-80
2024/01/18 03:55:41;;;;;;;16.35;8.13;;;-0.20;99.90;;;;;;5038420;28;20021;-80
2024/01/18 03:58:07;;;;;;;14.40;8.02;;;-0.20;99.90;;;;;;5044170;28;20020;-80
2024/01/18 04:00:32;;;;;;;12.55;7.63;;;-0.20;99.90;;;;;;5037160;28;20030;-79
2024/01/18 04:02:58;;;;;;;12.98;7.30;;;-0.20;99.90;;;;;;5036305;28;20085;-80
2024/01/18 04:05:24;;;;;;;15.18;8.07;;;-0.20;99.90;;;;;;5036171;28;20481;-80
2024/01/18 04:07:49;;;;;;;12.57;8.10;;;-0.20;99.90;;;;;;5035324;28;20393;-80
2024/01/18 04:10:15;;;;;;;13.65;8.85;;;-0.20;99.90;;;;;;5039980;28;20037;-80
2024/01/18 04:12:42;;;;;;;15.55;9.07;;;-0.20;99.90;;;;;;5035290;28;20036;-80
2024/01/18 04:15:09;;;;;;;14.75;9.05;;;-0.10;99.90;;;;;;5036563;28;20037;-81
2024/01/18 04:17:34;;;;;;;14.13;8.65;;;-0.10;99.90;;;;;;5037981;28;20032;-80
2024/01/18 04:20:00;;;;;;;17.48;8.80;;;-0.10;99.90;;;;;;5041546;28;20034;-80
2024/01/18 04:22:26;;;;;;;16.35;8.18;;;0.00;99.90;;;;;;5037711;28;20029;-81
2024/01/18 04:24:52;;;;;;;15.20;8.75;;;0.00;99.90;;;;;;5037599;28;20049;-80
2024/01/18 04:27:18;;;;;;;15.32;8.23;;;-0.10;99.90;;;;;;5035214;28;20588;-80
2024/01/18 04:29:44;;;;;;;13.98;8.43;;;-0.10;99.90;;;;;;5041016;28;20515;-80
2024/01/18 04:32:10;;;;;;;13.45;8.20;;;-0.10;99.90;;;;;;5017960;28;20037;-81
2024/01/18 04:34:37;;;;;;;16.63;9.02;;;-0.10;99.90;;;;;;5036714;28;20551;-81
2024/01/18 04:37:03;;;;;;;14.05;8.35;;;-0.10;99.90;;;;;;5038079;28;20026;-80
2024/01/18 04:39:29;;;;;;;13.30;8.52;;;-0.10;99.90;;;;;;5042670;28;20457;-81
2024/01/18 04:41:55;;;;;;;14.05;8.40;;;-0.10;99.90;;;;;;5038341;28;20029;-80
2024/01/18 04:44:21;;;;;;;18.48;11.02;;;-0.10;99.90;;;;;;5037759;28;20117;-81
2024/01/18 04:46:47;;;;;;;19.35;10.45;;;-0.10;99.90;;;;;;5017594;28;20065;-81
2024/01/18 04:49:13;;;;;;;16.73;9.77;;;-0.10;99.90;;;;;;5035083;28;20033;-81
2024/01/18 04:51:39;;;;;;;18.38;10.55;;;-0.10;99.90;;;;;;5048747;28;20029;-81
2024/01/18 04:54:05;;;;;;;15.80;9.60;;;-0.10;99.90;;;;;;5057195;28;20036;-81
2024/01/18 04:56:31;;;;;;;18.05;10.85;;;-0.10;99.90;;;;;;5057662;28;20025;-81
2024/01/18 04:58:57;;;;;;;19.30;11.23;;;-0.10;99.90;;;;;;5046084;28;20037;-81
2024/01/18 05:01:22;;;;;;;16.50;9.20;;;-0.10;99.90;;;;;;5036298;28;20038;-81
2024/01/18 05:03:48;;;;;;;14.55;9.40;;;-0.10;99.90;;;;;;5035845;28;20029;-81
2024/01/18 05:06:13;;;;;;;15.13;8.57;;;-0.10;99.90;;;;;;5036113;28;20022;-81
2024/01/18 05:08:39;;;;;;;19.00;10.50;;;-0.10;99.90;;;;;;5024687;28;20025;-81
2024/01/18 05:11:06;;;;;;;23.65;12.52;;;-0.10;99.90;;;;;;5042617;28;20159;-81
2024/01/18 05:13:32;;;;;;;17.33;10.45;;;-0.10;99.90;;;;;;5034267;28;20025;-81
2024/01/18 05:15:59;;;;;;;17.25;10.27;;;-0.10;99.90;;;;;;5034542;28;20033;-80
2024/01/18 05:18:25;;;;;;;21.70;11.90;;;0.00;99.90;;;;;;5040502;28;20024;-80
2024/01/18 05:20:50;;;;;;;20.98;11.48;;;0.00;99.90;;;;;;5045305;28;20030;-79
2024/01/18 05:23:16;;;;;;;20.15;10.15;;;0.00;99.90;;;;;;5036366;28;20033;-80
2024/01/18 05:25:41;;;;;;;17.83;9.93;;;-0.10;99.90;;;;;;5039748;28;20033;-80
2024/01/18 05:28:07;;;;;;;17.48;10.48;;;0.00;99.90;;;;;;5022678;28;20025;-80
2024/01/18 05:30:33;;;;;;;16.55;9.70;;;0.00;99.90;;;;;;5040524;28;20026;-81
2024/01/18 05:32:59;;;;;;;19.33;10.48;;;0.00;99.90;;;;;;5038474;28;20029;-80
2024/01/18 05:35:24;;;;;;;20.98;10.88;;;0.00;99.90;;;;;;5039276;28;20033;-81
2024/01/18 05:37:50;;;;;;;20.42;10.43;;;0.00;99.90;;;;;;5037945;28;20029;-81
2024/01/18 05:40:17;;;;;;;26.88;14.00;;;0.00;99.90;;;;;;5040865;28;20025;-81
2024/01/18 05:42:42;;;;;;;21.88;12.48;;;0.10;99.90;;;;;;5038954;28;20037;-80
2024/01/18 05:45:08;;;;;;;19.42;13.07;;;0.10;99.90;;;;;;5009672;28;20033;-81
2024/01/18 05:47:34;;;;;;;20.40;12.75;;;0.00;99.90;;;;;;5038332;28;20033;-81
2024/01/18 05:50:00;;;;;;;22.40;11.77;;;0.00;99.90;;;;;;5056353;28;20031;-81
2024/01/18 05:52:27;;;;;;;16.23;10.27;;;0.00;99.90;;;;;;5040664;28;20033;-79
2024/01/18 05:54:53;;;;;;;18.55;10.13;;;0.00;99.90;;;;;;5047663;28;20021;-79
2024/01/18 05:57:18;;;;;;;20.33;11.25;;;0.00;99.90;;;;;;5040386;28;20064;-80
2024/01/18 05:59:44;;;;;;;16.45;9.70;;;0.00;99.90;;;;;;5052841;28;20025;-80
2024/01/18 06:02:10;;;;;;;15.45;8.63;;;0.10;99.90;;;;;;5040872;28;20100;-80
2024/01/18 06:04:35;;;;;;;18.23;9.65;;;0.00;99.90;;;;;;5040932;28;20507;-80
2024/01/18 06:07:01;;;;;;;19.80;8.60;;;0.00;99.90;;;;;;5057812;28;20025;-80
2024/01/18 06:09:27;;;;;;;18.13;10.70;;;0.00;99.90;;;;;;5045296;28;20500;-80
2024/01/18 06:11:52;;;;;;;16.92;9.32;;;0.10;99.90;;;;;;5038475;28;20033;-79
2024/01/18 06:14:18;;;;;;;19.40;10.07;;;0.10;99.90;;;;;;5038117;28;20032;-80
2024/01/18 06:16:44;;;;;;;15.63;9.45;;;0.10;99.90;;;;;;5037678;28;20026;-80
2024/01/18 06:19:11;;;;;;;19.10;10.48;;;0.10;99.90;;;;;;5047148;28;20542;-80
2024/01/18 06:21:37;;;;;;;53.17;24.70;;;0.10;99.90;;;;;;5058679;28;20029;-79
2024/01/18 06:24:03;;;;;;;37.22;18.70;;;0.10;99.90;;;;;;5059131;28;20473;-80
2024/01/18 06:26:29;;;;;;;30.98;17.10;;;0.10;99.90;;;;;;5058923;28;20029;-80
2024/01/18 06:28:54;;;;;;;42.88;24.63;;;0.00;99.90;;;;;;5049935;28;20021;-80
2024/01/18 06:31:26;;;;;;;37.22;20.88;;;0.10;99.90;;;;;;5037404;28;20091;-80
2024/01/18 06:33:53;;;;;;;31.90;18.73;;;0.10;99.90;;;;;;5037830;28;20068;-80
2024/01/18 06:36:19;;;;;;;28.35;16.98;;;0.10;99.90;;;;;;5035833;28;20025;-80
2024/01/18 06:38:45;;;;;;;28.08;16.15;;;0.10;99.90;;;;;;5044308;28;20067;-80
2024/01/18 06:41:11;;;;;;;21.88;13.43;;;0.10;99.90;;;;;;5057148;28;20035;-80
2024/01/18 06:43:37;;;;;;;19.48;12.95;;;0.10;99.90;;;;;;5057070;28;20036;-80
2024/01/18 06:46:03;;;;;;;24.58;14.65;;;0.10;99.90;;;;;;5046843;28;20033;-80
2024/01/18 06:48:28;;;;;;;19.27;11.77;;;0.10;99.90;;;;;;5040454;28;20021;-79
2024/01/18 06:50:54;;;;;;;20.63;12.05;;;0.10;99.90;;;;;;5058084;28;20089;-80
2024/01/18 06:53:20;;;;;;;16.33;10.90;;;0.10;99.90;;;;;;5056652;28;20036;-80
2024/01/18 06:55:46;;;;;;;14.60;9.35;;;0.10;99.90;;;;;;5057391;28;20025;-79
2024/01/18 06:58:11;;;;;;;14.43;8.95;;;0.10;99.90;;;;;;5038553;28;20556;-79
2024/01/18 07:00:37;;;;;;;16.77;10.38;;;0.10;99.90;;;;;;5057547;28;20025;-79
2024/01/18 07:03:03;;;;;;;23.27;11.85;;;0.10;99.90;;;;;;5039197;28;20037;-79
2024/01/18 07:05:28;;;;;;;18.75;10.00;;;0.10;99.90;;;;;;5055972;28;20029;-79
2024/01/18 07:07:54;;;;;;;15.07;9.48;;;0.10;99.90;;;;;;5039655;28;20389;-80
2024/01/18 07:10:23;;;;;;;24.85;12.70;;;0.00;99.90;;;;;;5037734;28;20460;-80
2024/01/18 07:12:48;;;;;;;17.90;11.30;;;0.00;99.90;;;;;;5037129;28;20037;-81
2024/01/18 07:15:14;;;;;;;25.83;15.20;;;0.00;99.90;;;;;;5037337;28;20433;-81
2024/01/18 07:17:40;;;;;;;21.95;12.95;;;0.00;99.90;;;;;;5035459;28;20500;-80
2024/01/18 07:20:06;;;;;;;21.45;12.68;;;0.00;99.90;;;;;;5052989;28;20038;-80
2024/01/18 07:22:32;;;;;;;19.10;11.85;;;0.00;99.90;;;;;;5057062;28;20059;-79
2024/01/18 07:24:58;;;;;;;24.50;13.57;;;0.10;99.90;;;;;;5057441;28;20473;-80
2024/01/18 07:27:23;;;;;;;16.15;10.50;;;0.10;99.90;;;;;;5057240;28;20033;-80
2024/01/18 07:29:49;;;;;;;16.58;10.15;;;0.10;99.90;;;;;;5042815;28;20075;-79
2024/01/18 07:32:18;;;;;;;17.73;10.50;;;0.10;99.90;;;;;;5035631;28;20030;-80
2024/01/18 07:34:45;;;;;;;14.50;9.50;;;0.10;99.90;;;;;;5036633;28;20025;-79
2024/01/18 07:37:13;;;;;;;21.27;11.57;;;0.10;99.90;;;;;;5037318;28;20029;-80
2024/01/18 07:39:40;;;;;;;19.80;11.30;;;0.10;99.90;;;;;;5049131;28;20025;-79
2024/01/18 07:42:07;;;;;;;17.40;10.07;;;0.10;99.90;;;;;;5056864;28;20112;-79
2024/01/18 07:44:33;;;;;;;26.45;13.95;;;0.10;99.90;;;;;;5055895;28;20029;-79
2024/01/18 07:46:58;;;;;;;23.23;12.38;;;0.20;99.90;;;;;;5037703;28;20056;-79
2024/01/18 07:49:24;;;;;;;19.55;10.75;;;0.20;99.90;;;;;;5047223;28;20393;-79
2024/01/18 07:51:50;;;;;;;23.02;11.43;;;0.20;99.90;;;;;;5056713;28;20029;-79
2024/01/18 07:54:16;;;;;;;17.88;9.43;;;0.20;99.90;;;;;;5056620;28;20021;-80
2024/01/18 07:56:42;;;;;;;15.95;8.40;;;0.30;99.90;;;;;;5056436;28;20021;-79
2024/01/18 07:59:08;;;;;;;18.58;8.50;;;0.30;99.90;;;;;;5047028;28;20513;-79
2024/01/18 08:01:34;;;;;;;13.25;7.72;;;0.40;99.90;;;;;;5034675;28;20026;-80
2024/01/18 08:04:00;;;;;;;12.68;7.05;;;0.40;99.90;;;;;;5039379;28;20109;-79
2024/01/18 08:06:25;;;;;;;17.83;7.78;;;0.40;99.90;;;;;;5036496;28;20029;-79
2024/01/18 08:08:51;;;;;;;19.35;8.45;;;0.50;99.90;;;;;;5041843;28;20029;-79
2024/01/18 08:11:17;;;;;;;16.00;8.02;;;0.50;99.90;;;;;;5055004;28;20175;-79
2024/01/18 08:13:43;;;;;;;14.48;8.20;;;0.50;99.90;;;;;;5056554;28;20025;-79
2024/01/18 08:16:09;;;;;;;18.27;9.93;;;0.60;99.90;;;;;;5042924;28;20110;-79
2024/01/18 08:18:36;;;;;;;14.65;8.38;;;0.60;99.90;;;;;;5039425;28;20021;-79
2024/01/18 08:21:02;;;;;;;17.38;10.20;;;0.60;99.90;;;;;;5053980;28;20477;-79
2024/01/18 08:23:28;;;;;;;15.00;9.00;;;0.60;99.90;;;;;;5055246;28;20090;-79
2024/01/18 08:25:54;;;;;;;21.77;10.82;;;0.60;99.90;;;;;;5055245;28;20025;-79
2024/01/18 08:28:21;;;;;;;19.30;9.93;;;0.70;99.90;;;;;;5053995;28;20025;-79
2024/01/18 08:30:47;;;;;;;16.25;9.70;;;0.70;99.90;;;;;;5035514;28;20567;-79
2024/01/18 08:33:13;;;;;;;23.75;12.55;;;0.80;99.90;;;;;;5035331;28;20072;-79
2024/01/18 08:35:39;;;;;;;20.90;11.23;;;0.80;99.90;;;;;;5034189;28;20449;-79
2024/01/18 08:38:04;;;;;;;19.58;11.23;;;0.80;99.90;;;;;;5034098;28;20084;-79
2024/01/18 08:40:30;;;;;;;15.68;9.90;;;0.80;99.90;;;;;;5052871;28;20120;-79
2024/01/18 08:42:56;;;;;;;21.60;10.45;;;0.80;99.90;;;;;;5054741;28;20040;-79
2024/01/18 08:45:23;;;;;;;18.30;10.50;;;0.80;99.90;;;;;;5049954;28;20045;-79
2024/01/18 08:47:49;;;;;;;17.85;9.77;;;0.90;99.90;;;;;;5035384;28;20481;-79
2024/01/18 08:50:15;;;;;;;25.13;12.20;;;0.90;99.90;;;;;;5051675;28;20067;-79
2024/01/18 08:52:44;;;;;;;22.60;12.15;;;1.00;99.90;;;;;;5037508;28;20040;-79
2024/01/18 08:55:09;;;;;;;22.15;12.25;;;1.00;99.90;;;;;;5055864;28;20025;-79
2024/01/18 08:57:35;;;;;;;33.33;16.65;;;1.00;99.90;;;;;;5055574;28;20044;-79
2024/01/18 09:00:01;;;;;;;30.60;15.48;;;1.00;99.90;;;;;;5052144;28;20036;-79
2024/01/18 09:02:27;;;;;;;32.05;16.45;;;1.00;99.90;;;;;;5059807;28;20451;-80
2024/01/18 09:04:53;;;;;;;22.88;12.93;;;1.00;99.90;;;;;;5059719;28;20025;-80
2024/01/18 09:07:19;;;;;;;26.63;14.15;;;1.00;99.90;;;;;;5066105;28;20031;-80
2024/01/18 09:09:45;;;;;;;26.85;13.98;;;1.10;99.90;;;;;;5030033;28;20064;-79
2024/01/18 09:12:11;;;;;;;22.77;13.57;;;1.10;99.90;;;;;;5037977;28;20108;-80
2024/01/18 09:14:37;;;;;;;22.90;13.35;;;1.10;99.90;;;;;;5039339;28;20090;-79
2024/01/18 09:17:03;;;;;;;19.17;11.85;;;1.20;99.90;;;;;;5039511;28;20033;-80
2024/01/18 09:19:32;;;;;;;23.98;11.25;;;1.20;99.90;;;;;;5049202;28;20017;-80
2024/01/18 09:21:57;;;;;;;19.15;11.10;;;1.30;99.90;;;;;;5058121;28;20051;-79
2024/01/18 09:24:23;;;;;;;16.75;9.57;;;1.30;99.90;;;;;;5057830;28;20033;-80
2024/01/18 09:26:49;;;;;;;16.45;9.90;;;1.40;99.90;;;;;;5059487;28;20111;-80
2024/01/18 09:29:15;;;;;;;21.80;11.65;;;1.40;99.90;;;;;;5051560;28;20116;-79
2024/01/18 09:31:41;;;;;;;25.55;12.25;;;1.40;99.90;;;;;;5037842;28;20049;-79
2024/01/18 09:34:06;;;;;;;21.75;11.68;;;1.40;99.90;;;;;;5039519;28;20028;-79
2024/01/18 09:36:32;;;;;;;20.83;11.18;;;1.40;99.90;;;;;;5037760;28;20033;-79
2024/01/18 09:38:58;;;;;;;19.83;11.38;;;1.40;99.90;;;;;;5043732;28;20076;-80
2024/01/18 09:41:26;;;;;;;25.23;12.48;;;1.50;99.90;;;;;;5058199;28;20488;-80
2024/01/18 09:43:57;;;;;;;20.85;11.63;;;1.50;99.90;;;;;;5041471;28;20397;-80
2024/01/18 09:46:23;;;;;;;25.25;12.38;;;1.50;99.90;;;;;;5045613;28;20386;-80
2024/01/18 09:48:49;;;;;;;26.50;13.13;;;1.60;99.90;;;;;;5042758;28;20155;-80
2024/01/18 09:51:15;;;;;;;33.75;16.73;;;1.60;99.90;;;;;;5059236;28;20057;-79
2024/01/18 09:53:47;;;;;;;29.25;16.33;;;1.70;99.90;;;;;;5058589;28;20397;-80
2024/01/18 09:56:26;;;;;;;32.58;16.35;;;1.70;99.90;;;;;;5056152;28;20036;-79
2024/01/18 09:58:55;;;;;;;32.67;16.98;;;1.70;99.90;;;;;;5080064;22;20037;-71
2024/01/18 10:01:23;;;;;;;32.35;17.55;;;1.80;99.90;;;;;;5055487;28;20022;-71
2024/01/18 10:03:49;;;;;;;33.00;17.27;;;1.80;99.90;;;;;;5056035;28;20053;-71
2024/01/18 10:06:19;;;;;;;89.93;52.70;;;1.90;99.90;;;;;;5055895;28;20094;-71
2024/01/18 10:08:46;;;;;;;96.97;38.35;;;1.90;99.90;;;;;;5055864;28;20572;-71
2024/01/18 10:11:11;;;;;;;113.15;48.60;;;2.00;99.90;;;;;;5056414;28;20029;-72
2024/01/18 10:13:54;;;;;;;46.40;28.00;;;2.00;99.90;;;;;;5056077;28;20025;-71
2024/01/18 10:16:30;;;;;;;32.15;18.27;;;2.10;99.90;;;;;;5055778;28;20112;-71
2024/01/18 10:18:57;;;;;;;47.47;29.77;;;2.10;99.90;;;;;;5054377;28;20525;-71
2024/01/18 10:21:23;;;;;;;29.48;16.55;;;2.10;99.90;;;;;;5055934;28;20117;-72
2024/01/18 10:23:51;;;;;;;35.22;17.40;;;2.10;99.90;;;;;;5055626;28;20036;-72
2024/01/18 10:26:17;;;;;;;32.80;16.70;;;2.10;99.90;;;;;;5055495;28;20040;-72
2024/01/18 10:28:44;;;;;;;30.63;16.15;;;2.10;99.90;;;;;;5055886;28;20489;-72
2024/01/18 10:31:09;;;;;;;36.90;19.83;;;2.20;99.90;;;;;;5055397;28;20025;-72
2024/01/18 10:33:35;;;;;;;22.33;13.50;;;2.20;99.90;;;;;;5055409;28;20385;-71
2024/01/18 10:36:01;;;;;;;24.23;12.95;;;2.30;99.90;;;;;;5055371;28;20028;-72
2024/01/18 10:38:32;;;;;;;21.80;11.52;;;2.30;99.90;;;;;;5053946;28;20043;-71
2024/01/18 10:40:59;;;;;;;21.42;11.48;;;2.30;99.90;;;;;;5055693;28;20350;-71
2024/01/18 10:43:29;;;;;;;21.25;10.52;;;2.30;99.90;;;;;;5055339;28;20032;-71
2024/01/18 10:45:56;;;;;;;17.93;10.23;;;2.30;99.90;;;;;;5055237;28;20393;-72
2024/01/18 10:48:22;;;;;;;26.98;11.48;;;2.30;99.90;;;;;;5055232;28;20263;-72
2024/01/18 10:50:53;;;;;;;20.23;11.32;;;2.20;99.90;;;;;;5055530;28;20025;-72
2024/01/18 10:53:20;;;;;;;25.08;13.82;;;2.10;99.90;;;;;;5055362;28;20035;-72
2024/01/18 10:55:46;;;;;;;28.35;15.23;;;2.20;99.90;;;;;;5055007;28;20028;-72
2024/01/18 10:58:12;;;;;;;28.15;15.60;;;2.20;99.90;;;;;;5054880;28;20029;-72
2024/01/18 11:00:37;;;;;;;31.50;16.75;;;2.10;99.90;;;;;;5038287;28;20037;-72
2024/01/18 11:03:04;;;;;;;35.53;16.98;;;2.20;99.90;;;;;;5054875;28;20083;-72
2024/01/18 11:05:30;;;;;;;34.75;17.58;;;2.20;99.90;;;;;;5054912;28;20064;-73
2024/01/18 11:07:57;;;;;;;28.80;15.52;;;2.30;99.90;;;;;;5054768;28;20056;-73
2024/01/18 11:10:23;;;;;;;35.88;16.73;;;2.30;99.90;;;;;;5065739;28;20029;-72
2024/01/18 11:12:49;;;;;;;31.40;15.75;;;2.30;99.90;;;;;;5054601;28;20512;-73
2024/01/18 11:15:16;;;;;;;32.90;17.25;;;2.30;99.90;;;;;;5054579;28;20396;-73
2024/01/18 11:17:54;;;;;;;35.28;21.20;;;2.30;99.90;;;;;;5054964;28;20056;-73
2024/01/18 11:20:20;;;;;;;34.35;19.17;;;2.40;99.90;;;;;;5054820;28;20087;-73
2024/01/18 11:22:46;;;;;;;34.97;18.45;;;2.40;99.90;;;;;;5052944;28;20029;-73
2024/01/18 11:25:21;;;;;;;32.22;18.13;;;2.50;99.90;;;;;;5054314;28;20033;-73
2024/01/18 11:27:47;;;;;;;31.20;16.92;;;2.60;99.90;;;;;;5055056;28;20028;-73
2024/01/18 11:30:32;;;;;;;28.23;16.52;;;2.60;99.90;;;;;;5054494;28;20033;-73
2024/01/18 11:32:58;;;;;;;43.58;23.13;;;2.70;99.90;;;;;;5052882;28;20025;-73
2024/01/18 11:35:24;;;;;;;57.70;24.80;;;2.80;99.90;;;;;;5054410;28;20056;-72
2024/01/18 11:37:49;;;;;;;33.50;17.42;;;2.80;99.90;;;;;;5054234;28;20021;-73
2024/01/18 11:40:17;;;;;;;23.98;13.90;;;2.80;99.90;;;;;;5052987;28;20431;-73
2024/01/18 11:42:45;;;;;;;24.08;14.90;;;2.70;99.90;;;;;;5054137;28;20100;-73
2024/01/18 11:45:18;;;;;;;24.13;13.48;;;2.70;99.90;;;;;;5054810;28;20473;-73
2024/01/18 11:47:45;;;;;;;28.23;16.35;;;2.70;99.90;;;;;;5054021;28;20024;-73
2024/01/18 11:50:11;;;;;;;33.70;18.52;;;2.70;99.90;;;;;;5069355;28;20040;-73
2024/01/18 11:52:42;;;;;;;30.73;18.20;;;2.80;99.90;;;;;;5053842;28;20021;-73
2024/01/18 11:55:11;;;;;;;25.98;16.27;;;2.70;99.90;;;;;;5053916;28;20049;-73
2024/01/18 11:57:37;;;;;;;22.15;13.70;;;2.80;99.90;;;;;;5054434;28;20063;-73
2024/01/18 12:00:04;;;;;;;28.02;16.08;;;2.90;99.90;;;;;;5053759;28;20396;-73
2024/01/18 12:02:30;;;;;;;27.83;16.35;;;3.00;99.90;;;;;;5054342;28;20021;-73
2024/01/18 12:04:57;;;;;;;29.55;16.35;;;3.20;99.90;;;;;;5053626;28;20033;-73
2024/01/18 12:07:24;;;;;;;26.63;16.10;;;3.30;99.90;;;;;;5053718;28;20111;-73
2024/01/18 12:09:50;;;;;;;28.10;16.63;;;3.40;99.90;;;;;;5052956;28;20035;-73
2024/01/18 12:12:17;;;;;;;27.58;16.65;;;3.50;99.90;;;;;;5053962;28;20100;-73
2024/01/18 12:14:44;;;;;;;25.77;15.10;;;3.60;99.90;;;;;;5054320;28;20021;-73
2024/01/18 12:17:12;;;;;;;26.95;15.98;;;3.70;99.90;;;;;;5053572;28;20428;-73
2024/01/18 12:19:40;;;;;;;28.38;15.40;;;3.70;99.90;;;;;;5054100;28;20047;-72
2024/01/18 12:22:17;;;;;;;24.38;14.65;;;3.70;99.90;;;;;;5053810;28;20025;-73
2024/01/18 12:24:43;;;;;;;25.63;15.93;;;3.70;99.90;;;;;;5053725;28;20486;-72
2024/01/18 12:27:10;;;;;;;27.05;15.25;;;3.70;99.90;;;;;;5053421;28;20040;-73
2024/01/18 12:29:38;;;;;;;27.92;15.20;;;3.60;99.90;;;;;;5053396;28;20029;-73
2024/01/18 12:32:05;;;;;;;25.50;15.50;;;3.50;99.90;;;;;;5053115;28;20024;-73
2024/01/18 12:34:32;;;;;;;30.73;16.52;;;3.40;99.90;;;;;;5052848;28;20025;-73